Time;durP1;ratioP1;P1;durP2;ratioP2;P2;SDS_P1;SDS_P2;PMS_P1;PMS_P2;Temp;Humidity;BMP_temperature;BMP_pressure;BME280_temperature;BME280_humidity;BME280_pressure;Samples;Min_cycle;Max_cycle;Signal;HPM_P1;HPM_P2
2023/06/16 00:00:12;;;;;;;4.00;2.90;;;16.10;59.90;;;;;;5117635;27;20621;-74
2023/06/16 00:02:41;;;;;;;3.57;3.17;;;16.00;60.70;;;;;;5119220;27;20637;-74
2023/06/16 00:05:10;;;;;;;3.40;3.10;;;15.90;61.30;;;;;;5122204;27;20613;-73
2023/06/16 00:07:38;;;;;;;4.23;3.57;;;15.80;62.30;;;;;;5122447;27;21222;-73
2023/06/16 00:10:07;;;;;;;3.57;3.27;;;15.70;62.60;;;;;;5120024;27;20966;-73
2023/06/16 00:12:34;;;;;;;4.90;4.07;;;15.60;63.40;;;;;;5119049;27;20622;-73
2023/06/16 00:15:01;;;;;;;2.73;2.53;;;15.70;62.00;;;;;;5119759;27;20678;-73
2023/06/16 00:17:28;;;;;;;3.63;3.00;;;15.70;61.80;;;;;;5121736;27;20675;-74
2023/06/16 00:19:57;;;;;;;4.87;3.80;;;15.70;62.10;;;;;;5121803;27;20657;-73
2023/06/16 00:22:25;;;;;;;3.63;3.30;;;15.70;62.30;;;;;;5119233;27;20650;-73
2023/06/16 00:24:52;;;;;;;2.73;2.50;;;15.70;63.90;;;;;;5119131;27;20633;-73
2023/06/16 00:27:22;;;;;;;6.23;3.80;;;15.70;63.30;;;;;;5120175;27;20668;-73
2023/06/16 00:29:49;;;;;;;3.13;2.93;;;15.60;61.90;;;;;;5120805;27;20697;-73
2023/06/16 00:32:16;;;;;;;3.43;3.13;;;15.70;62.50;;;;;;5121873;27;20668;-73
2023/06/16 00:34:43;;;;;;;3.83;3.03;;;15.60;63.10;;;;;;5118703;27;20620;-73
2023/06/16 00:37:09;;;;;;;6.60;3.60;;;15.60;64.00;;;;;;5118506;27;20661;-74
2023/06/16 00:39:36;;;;;;;4.10;3.47;;;15.60;64.10;;;;;;5120039;27;20980;-73
2023/06/16 00:42:04;;;;;;;4.17;3.87;;;15.50;64.50;;;;;;5121658;27;20655;-73
2023/06/16 00:44:32;;;;;;;3.97;3.63;;;15.50;64.50;;;;;;5120668;27;21057;-73
2023/06/16 00:46:58;;;;;;;6.27;2.87;;;15.60;64.90;;;;;;5117921;27;20641;-73
2023/06/16 00:49:25;;;;;;;4.10;3.80;;;15.50;64.50;;;;;;5117623;27;20624;-73
2023/06/16 00:51:54;;;;;;;4.47;3.60;;;15.40;64.80;;;;;;5121028;27;21541;-73
2023/06/16 00:54:21;;;;;;;4.20;3.20;;;15.40;63.50;;;;;;5121298;27;20623;-73
2023/06/16 00:56:48;;;;;;;4.50;3.30;;;15.40;64.20;;;;;;5119810;27;20648;-73
2023/06/16 00:59:15;;;;;;;4.30;3.50;;;15.40;63.70;;;;;;5120619;27;20971;-73
2023/06/16 01:01:44;;;;;;;3.30;3.00;;;15.40;63.90;;;;;;5120680;27;20653;-73
2023/06/16 01:04:12;;;;;;;6.10;3.13;;;15.30;63.50;;;;;;5110089;27;20625;-73
2023/06/16 01:06:57;;;;;;;3.73;2.80;;;15.20;64.20;;;;;;5117841;27;20653;-73
2023/06/16 01:09:32;;;;;;;3.77;3.17;;;15.20;64.50;;;;;;5110320;27;20686;-73
2023/06/16 01:12:11;;;;;;;5.10;3.77;;;15.20;64.60;;;;;;5118624;27;20679;-73
2023/06/16 01:14:49;;;;;;;3.10;2.67;;;15.10;65.60;;;;;;5121404;27;20621;-74
2023/06/16 01:17:23;;;;;;;3.20;3.00;;;14.90;66.80;;;;;;5118272;27;20700;-73
2023/06/16 01:20:07;;;;;;;2.77;2.57;;;14.70;67.10;;;;;;5116866;27;20651;-73
2023/06/16 01:22:56;;;;;;;2.40;2.20;;;14.70;67.40;;;;;;5110726;27;20641;-73
2023/06/16 01:25:28;;;;;;;6.23;3.60;;;14.60;67.90;;;;;;5120146;27;20751;-73
2023/06/16 01:27:57;;;;;;;3.50;2.90;;;14.70;68.90;;;;;;5120943;27;21203;-74
2023/06/16 01:30:30;;;;;;;5.10;2.77;;;14.70;68.90;;;;;;5117556;27;20708;-74
2023/06/16 01:32:58;;;;;;;3.73;2.70;;;14.80;67.40;;;;;;5117647;27;20621;-74
2023/06/16 01:35:27;;;;;;;4.43;3.33;;;14.90;66.50;;;;;;5118735;27;21077;-74
2023/06/16 01:37:56;;;;;;;3.37;3.07;;;14.90;66.00;;;;;;5120700;27;21030;-74
2023/06/16 01:40:26;;;;;;;3.97;3.10;;;14.90;65.60;;;;;;5119437;27;21296;-74
2023/06/16 01:42:54;;;;;;;3.37;3.07;;;14.90;65.90;;;;;;5116831;27;20754;-74
2023/06/16 01:45:23;;;;;;;3.07;2.70;;;14.90;66.70;;;;;;5116945;27;20735;-74
2023/06/16 01:47:52;;;;;;;3.10;2.80;;;14.80;67.60;;;;;;5117450;27;20709;-74
2023/06/16 01:50:23;;;;;;;3.20;2.90;;;14.80;68.60;;;;;;5116183;27;20656;-74
2023/06/16 01:52:51;;;;;;;3.10;2.90;;;14.70;69.30;;;;;;5120234;27;20629;-74
2023/06/16 01:55:18;;;;;;;4.00;3.57;;;14.50;70.30;;;;;;5120296;27;20991;-73
2023/06/16 01:57:47;;;;;;;4.33;3.00;;;14.60;69.70;;;;;;5119337;27;20713;-74
2023/06/16 02:00:20;;;;;;;3.47;3.17;;;14.60;70.10;;;;;;5115970;27;20648;-74
2023/06/16 02:02:54;;;;;;;3.47;2.60;;;14.60;70.70;;;;;;5118210;27;21256;-74
2023/06/16 02:05:25;;;;;;;3.27;2.80;;;14.60;71.10;;;;;;5120136;27;20672;-73
2023/06/16 02:07:55;;;;;;;2.97;2.73;;;14.60;71.20;;;;;;5119180;27;20714;-74
2023/06/16 02:10:23;;;;;;;3.20;2.90;;;14.60;71.30;;;;;;5115874;27;20974;-74
2023/06/16 02:12:52;;;;;;;3.93;3.00;;;14.50;71.40;;;;;;5116984;27;20671;-74
2023/06/16 02:15:20;;;;;;;2.77;2.53;;;14.50;70.70;;;;;;5108094;27;20611;-73
2023/06/16 02:17:50;;;;;;;4.87;3.60;;;14.50;71.70;;;;;;5116856;27;21189;-74
2023/06/16 02:20:18;;;;;;;3.23;2.93;;;14.30;71.60;;;;;;5117449;27;20627;-74
2023/06/16 02:22:47;;;;;;;4.17;3.30;;;14.20;71.60;;;;;;5119521;27;20673;-74
2023/06/16 02:25:14;;;;;;;3.73;3.27;;;14.30;70.50;;;;;;5118616;27;21002;-73
2023/06/16 02:27:42;;;;;;;4.87;3.20;;;14.30;70.20;;;;;;5117079;27;20769;-74
2023/06/16 02:30:11;;;;;;;3.33;2.73;;;14.30;70.00;;;;;;5115251;27;20991;-74
2023/06/16 02:32:39;;;;;;;3.87;2.90;;;14.30;70.70;;;;;;5108482;27;20667;-74
2023/06/16 02:35:08;;;;;;;3.00;2.80;;;14.20;71.00;;;;;;5116553;27;20627;-74
2023/06/16 02:37:36;;;;;;;2.43;2.23;;;14.10;71.80;;;;;;5118771;27;20678;-73
2023/06/16 02:40:05;;;;;;;3.93;3.43;;;14.00;72.30;;;;;;5118952;27;20687;-74
2023/06/16 02:42:32;;;;;;;3.33;2.47;;;14.00;71.40;;;;;;5118363;27;20619;-74
2023/06/16 02:45:00;;;;;;;4.13;3.80;;;14.10;70.30;;;;;;5115618;27;21210;-74
2023/06/16 02:47:29;;;;;;;3.20;2.37;;;14.10;70.50;;;;;;5115673;28;20658;-73
2023/06/16 02:49:58;;;;;;;5.90;3.33;;;14.10;70.00;;;;;;5116292;28;20629;-74
2023/06/16 02:52:25;;;;;;;4.40;2.90;;;14.00;71.40;;;;;;5116288;27;21016;-74
2023/06/16 02:54:53;;;;;;;5.13;4.13;;;13.90;71.80;;;;;;5118747;28;20684;-74
2023/06/16 02:57:21;;;;;;;5.20;3.33;;;13.70;72.90;;;;;;5119461;28;21256;-74
2023/06/16 02:59:50;;;;;;;3.20;2.90;;;13.70;73.70;;;;;;5116817;28;20986;-74
2023/06/16 03:02:17;;;;;;;3.83;3.50;;;13.60;75.00;;;;;;5116226;28;20640;-74
2023/06/16 03:04:46;;;;;;;2.97;2.77;;;13.70;75.60;;;;;;5116942;28;20616;-74
2023/06/16 03:07:14;;;;;;;3.70;3.10;;;13.70;75.00;;;;;;5107994;28;21277;-74
2023/06/16 03:09:43;;;;;;;3.80;3.50;;;13.70;74.20;;;;;;5115527;27;20623;-74
2023/06/16 03:12:11;;;;;;;3.50;3.20;;;13.80;75.30;;;;;;5119061;28;20675;-74
2023/06/16 03:14:38;;;;;;;3.03;2.60;;;13.80;75.00;;;;;;5118756;28;20656;-74
2023/06/16 03:17:06;;;;;;;3.17;2.97;;;13.70;75.50;;;;;;5117990;28;21229;-74
2023/06/16 03:19:34;;;;;;;6.17;3.50;;;13.70;75.80;;;;;;5115707;28;20702;-73
2023/06/16 03:22:02;;;;;;;3.13;2.83;;;13.60;76.10;;;;;;5116087;28;20668;-74
2023/06/16 03:24:33;;;;;;;4.00;3.67;;;13.70;76.10;;;;;;5107728;28;20701;-74
2023/06/16 03:27:02;;;;;;;3.67;2.60;;;13.80;75.00;;;;;;5115574;28;20682;-74
2023/06/16 03:29:29;;;;;;;5.00;3.47;;;13.90;73.80;;;;;;5117781;28;20723;-75
2023/06/16 03:31:56;;;;;;;2.37;2.13;;;13.90;72.80;;;;;;5118714;28;20669;-74
2023/06/16 03:34:23;;;;;;;3.10;2.90;;;13.90;73.00;;;;;;5119437;27;20679;-74
2023/06/16 03:36:49;;;;;;;5.63;3.43;;;13.90;73.90;;;;;;5119789;27;20640;-74
2023/06/16 03:39:17;;;;;;;3.67;3.20;;;13.80;74.20;;;;;;5119011;27;20655;-74
2023/06/16 03:41:45;;;;;;;5.23;3.87;;;13.60;75.40;;;;;;5122211;27;21419;-73
2023/06/16 03:44:12;;;;;;;3.10;2.90;;;13.60;76.10;;;;;;5123089;27;20626;-74
2023/06/16 03:46:39;;;;;;;4.30;3.03;;;13.50;76.50;;;;;;5119455;27;21316;-74
2023/06/16 03:49:07;;;;;;;4.37;3.10;;;13.40;76.80;;;;;;5119275;27;20622;-74
2023/06/16 03:51:34;;;;;;;2.90;2.67;;;13.40;77.20;;;;;;5119843;27;21252;-74
2023/06/16 03:54:01;;;;;;;2.90;2.40;;;13.40;77.40;;;;;;5122457;27;20619;-73
2023/06/16 03:56:29;;;;;;;3.73;2.70;;;13.60;77.00;;;;;;5122500;27;20650;-74
2023/06/16 03:58:55;;;;;;;4.40;2.70;;;13.70;77.30;;;;;;5120464;27;20626;-74
2023/06/16 04:01:24;;;;;;;3.40;2.83;;;13.70;76.60;;;;;;5122214;27;21285;-74
2023/06/16 04:03:51;;;;;;;2.90;2.70;;;13.80;75.30;;;;;;5121398;27;21264;-74
2023/06/16 04:06:18;;;;;;;3.33;3.03;;;13.80;75.20;;;;;;5119058;27;20657;-74
2023/06/16 04:08:46;;;;;;;4.27;3.63;;;13.80;75.20;;;;;;5118684;27;21015;-74
2023/06/16 04:11:14;;;;;;;3.00;2.80;;;13.90;75.70;;;;;;5121814;27;20681;-74
2023/06/16 04:13:42;;;;;;;3.10;2.80;;;13.80;76.50;;;;;;5122550;27;20967;-74
2023/06/16 04:16:09;;;;;;;5.07;3.20;;;13.90;77.90;;;;;;5120222;27;20642;-73
2023/06/16 04:18:36;;;;;;;3.23;2.93;;;14.00;77.00;;;;;;5119232;27;20624;-74
2023/06/16 04:21:03;;;;;;;5.83;3.53;;;14.10;76.00;;;;;;5118170;27;20655;-74
2023/06/16 04:23:29;;;;;;;3.80;3.33;;;14.20;76.00;;;;;;5122197;27;20624;-74
2023/06/16 04:25:57;;;;;;;3.40;3.10;;;14.30;76.60;;;;;;5122240;27;20654;-74
2023/06/16 04:28:24;;;;;;;3.27;3.00;;;14.30;77.10;;;;;;5119978;27;21044;-74
2023/06/16 04:30:56;;;;;;;5.80;3.30;;;14.40;76.20;;;;;;5118163;27;20732;-74
2023/06/16 04:33:24;;;;;;;2.87;2.60;;;14.50;74.70;;;;;;5120023;27;20668;-74
2023/06/16 04:35:51;;;;;;;4.03;3.53;;;14.50;75.00;;;;;;5121286;27;20658;-74
2023/06/16 04:38:19;;;;;;;4.20;3.27;;;14.60;75.80;;;;;;5121787;27;20630;-76
2023/06/16 04:40:47;;;;;;;3.83;3.33;;;14.60;75.40;;;;;;5118166;27;20651;-76
2023/06/16 04:43:13;;;;;;;4.07;3.30;;;14.50;75.90;;;;;;5118274;27;20678;-76
2023/06/16 04:45:40;;;;;;;4.13;3.17;;;14.60;76.60;;;;;;5118920;27;20641;-76
2023/06/16 04:48:08;;;;;;;12.73;4.30;;;14.70;76.90;;;;;;5121237;27;20624;-76
2023/06/16 04:50:35;;;;;;;3.50;3.20;;;14.70;77.80;;;;;;5120283;27;20757;-77
2023/06/16 04:53:03;;;;;;;3.00;2.80;;;14.70;78.20;;;;;;5118532;27;20763;-76
2023/06/16 04:55:30;;;;;;;4.53;3.33;;;14.70;78.60;;;;;;5118350;27;20649;-76
2023/06/16 04:57:56;;;;;;;5.50;3.27;;;14.70;78.70;;;;;;5120968;27;20632;-76
2023/06/16 05:00:27;;;;;;;3.50;2.90;;;14.80;79.60;;;;;;5121096;27;20621;-76
2023/06/16 05:02:54;;;;;;;6.23;3.20;;;14.80;77.60;;;;;;5119116;27;21268;-77
2023/06/16 05:05:23;;;;;;;6.20;3.97;;;14.90;79.40;;;;;;5121240;27;20627;-73
2023/06/16 05:07:50;;;;;;;2.90;2.70;;;15.00;78.70;;;;;;5105859;27;20632;-74
2023/06/16 05:10:18;;;;;;;2.87;2.50;;;15.00;78.80;;;;;;5120146;27;20646;-73
2023/06/16 05:12:45;;;;;;;3.40;3.10;;;15.10;78.00;;;;;;5120770;27;21272;-73
2023/06/16 05:15:12;;;;;;;2.17;1.97;;;15.30;78.10;;;;;;5117887;27;20616;-73
2023/06/16 05:17:39;;;;;;;4.57;2.80;;;15.30;77.70;;;;;;5117549;27;21033;-73
2023/06/16 05:20:07;;;;;;;2.90;2.43;;;15.40;76.30;;;;;;5118267;27;20640;-73
2023/06/16 05:22:35;;;;;;;2.77;2.57;;;15.50;77.00;;;;;;5120868;27;20621;-73
2023/06/16 05:25:02;;;;;;;3.23;2.50;;;15.70;74.60;;;;;;5120997;27;20621;-73
2023/06/16 05:27:29;;;;;;;3.73;3.13;;;15.80;74.00;;;;;;5117463;27;21453;-73
2023/06/16 05:29:56;;;;;;;3.17;2.57;;;15.90;74.00;;;;;;5115846;27;20726;-73
2023/06/16 05:32:23;;;;;;;3.13;2.83;;;16.10;72.80;;;;;;5118675;27;21023;-73
2023/06/16 05:34:51;;;;;;;2.60;2.30;;;16.10;73.70;;;;;;5120866;27;20625;-72
2023/06/16 05:37:19;;;;;;;3.17;2.80;;;16.30;71.90;;;;;;5120047;27;21055;-73
2023/06/16 05:39:49;;;;;;;2.90;2.60;;;16.40;70.60;;;;;;5116710;27;20730;-73
2023/06/16 05:42:17;;;;;;;2.93;2.60;;;16.60;70.70;;;;;;5121301;27;20757;-73
2023/06/16 05:44:44;;;;;;;3.63;3.03;;;16.70;69.70;;;;;;5115963;27;20719;-73
2023/06/16 05:47:11;;;;;;;3.87;3.00;;;16.80;70.00;;;;;;5116730;27;20654;-73
2023/06/16 05:49:38;;;;;;;2.53;2.33;;;16.80;70.10;;;;;;5117565;27;20634;-73
2023/06/16 05:52:06;;;;;;;3.27;2.97;;;16.90;69.70;;;;;;5120413;27;20659;-73
2023/06/16 05:54:33;;;;;;;3.20;2.90;;;17.00;69.30;;;;;;5120479;27;20619;-73
2023/06/16 05:57:02;;;;;;;3.40;2.90;;;17.10;69.00;;;;;;5107184;27;20653;-73
2023/06/16 05:59:29;;;;;;;3.80;3.20;;;17.10;68.80;;;;;;5120901;27;20621;-74
2023/06/16 06:01:57;;;;;;;3.57;2.77;;;17.20;69.70;;;;;;5117527;27;20662;-73
2023/06/16 06:04:29;;;;;;;2.60;2.47;;;17.30;68.90;;;;;;5116479;27;20614;-73
2023/06/16 06:06:56;;;;;;;3.43;2.53;;;17.30;69.10;;;;;;5117842;27;21200;-73
2023/06/16 06:09:22;;;;;;;3.80;2.83;;;17.40;68.10;;;;;;5115172;27;20643;-73
2023/06/16 06:11:50;;;;;;;3.10;2.90;;;17.60;68.10;;;;;;5116254;27;21056;-73
2023/06/16 06:14:19;;;;;;;3.50;3.20;;;17.60;67.90;;;;;;5107976;27;20623;-73
2023/06/16 06:16:46;;;;;;;3.40;2.90;;;17.70;66.60;;;;;;5116515;27;20658;-73
2023/06/16 06:19:12;;;;;;;2.53;2.33;;;17.70;66.80;;;;;;5117830;27;20621;-72
2023/06/16 06:21:39;;;;;;;2.37;2.20;;;17.80;66.60;;;;;;5119387;27;20694;-73
2023/06/16 06:24:06;;;;;;;3.63;2.80;;;17.90;63.20;;;;;;5118551;27;20633;-73
2023/06/16 06:26:33;;;;;;;3.23;2.87;;;17.90;63.10;;;;;;5116545;27;20648;-73
2023/06/16 06:29:00;;;;;;;2.73;2.53;;;17.90;61.80;;;;;;5115730;27;21240;-73
2023/06/16 06:31:28;;;;;;;2.57;2.37;;;18.00;62.30;;;;;;5118374;27;20658;-74
2023/06/16 06:33:55;;;;;;;2.80;2.60;;;18.10;60.50;;;;;;5120049;27;20667;-73
2023/06/16 06:36:23;;;;;;;2.90;2.67;;;18.20;60.80;;;;;;5101744;27;20657;-73
2023/06/16 06:38:50;;;;;;;2.40;2.20;;;18.40;59.80;;;;;;5118574;27;20621;-73
2023/06/16 06:41:17;;;;;;;2.40;2.20;;;18.50;61.50;;;;;;5116737;27;20748;-73
2023/06/16 06:43:44;;;;;;;3.00;2.80;;;18.70;59.90;;;;;;5119022;27;20628;-73
2023/06/16 06:46:11;;;;;;;2.60;2.30;;;18.70;59.00;;;;;;5117651;27;21028;-74
2023/06/16 06:48:39;;;;;;;2.97;2.57;;;18.70;59.60;;;;;;5118042;28;20621;-73
2023/06/16 06:51:06;;;;;;;2.60;2.40;;;18.70;58.70;;;;;;5114381;28;20655;-73
2023/06/16 06:53:33;;;;;;;2.70;2.43;;;18.90;58.60;;;;;;5116299;28;20674;-72
2023/06/16 06:56:00;;;;;;;3.27;2.80;;;19.00;58.50;;;;;;5119474;28;20950;-73
2023/06/16 06:58:27;;;;;;;3.20;2.90;;;19.00;56.30;;;;;;5118913;28;20611;-73
2023/06/16 07:00:53;;;;;;;2.27;2.00;;;19.10;56.30;;;;;;5117228;27;20648;-73
2023/06/16 07:03:20;;;;;;;2.70;2.10;;;19.20;56.70;;;;;;5119785;27;20688;-73
2023/06/16 07:05:48;;;;;;;2.60;2.40;;;19.30;54.60;;;;;;5117865;27;21010;-74
2023/06/16 07:08:15;;;;;;;3.77;2.70;;;19.30;55.10;;;;;;5116104;28;20741;-74
2023/06/16 07:10:42;;;;;;;2.97;2.33;;;19.50;54.30;;;;;;5119058;27;20755;-74
2023/06/16 07:13:09;;;;;;;3.60;2.67;;;19.60;54.80;;;;;;5122149;27;21277;-73
2023/06/16 07:15:36;;;;;;;3.13;2.90;;;19.60;55.40;;;;;;5123561;27;20742;-74
2023/06/16 07:18:03;;;;;;;3.30;2.17;;;19.60;54.70;;;;;;5121716;27;20626;-74
2023/06/16 07:20:30;;;;;;;2.53;2.33;;;19.70;54.20;;;;;;5119051;27;20660;-74
2023/06/16 07:22:58;;;;;;;3.07;2.73;;;19.70;54.80;;;;;;5119935;27;20681;-73
2023/06/16 07:25:26;;;;;;;2.80;2.00;;;19.80;55.40;;;;;;5122863;27;20723;-74
2023/06/16 07:27:53;;;;;;;2.20;2.07;;;20.00;55.40;;;;;;5122923;27;20629;-73
2023/06/16 07:30:20;;;;;;;2.57;2.37;;;20.10;55.80;;;;;;5120118;27;20770;-73
2023/06/16 07:32:49;;;;;;;4.70;2.53;;;20.10;54.90;;;;;;5118898;27;20663;-73
2023/06/16 07:35:16;;;;;;;3.23;2.03;;;20.40;55.70;;;;;;5119704;27;20628;-73
2023/06/16 07:37:43;;;;;;;4.70;3.57;;;20.40;55.30;;;;;;5122946;27;20641;-73
2023/06/16 07:40:13;;;;;;;3.20;2.70;;;20.60;55.10;;;;;;5121862;27;20623;-73
2023/06/16 07:42:40;;;;;;;3.10;2.83;;;20.70;54.70;;;;;;5119948;27;20968;-73
2023/06/16 07:45:08;;;;;;;5.63;2.77;;;20.90;55.10;;;;;;5117886;27;20620;-73
2023/06/16 07:47:34;;;;;;;3.27;2.83;;;20.80;55.30;;;;;;5120613;27;20619;-73
2023/06/16 07:50:01;;;;;;;2.80;2.33;;;20.80;55.70;;;;;;5122352;27;20623;-73
2023/06/16 07:52:28;;;;;;;3.20;2.47;;;20.90;50.80;;;;;;5122460;27;21252;-73
2023/06/16 07:54:55;;;;;;;2.67;2.10;;;21.10;52.40;;;;;;5119170;27;20642;-73
2023/06/16 07:57:23;;;;;;;2.97;2.40;;;21.30;51.80;;;;;;5118979;27;20648;-73
2023/06/16 07:59:50;;;;;;;3.17;2.97;;;21.30;50.90;;;;;;5124734;27;20623;-73
2023/06/16 08:02:17;;;;;;;2.63;1.73;;;21.30;51.90;;;;;;5118859;27;20640;-73
2023/06/16 08:04:43;;;;;;;2.83;2.63;;;21.50;51.60;;;;;;5119250;27;20703;-73
2023/06/16 08:07:10;;;;;;;3.20;2.90;;;21.90;50.40;;;;;;5122000;27;20765;-73
2023/06/16 08:09:37;;;;;;;3.07;2.87;;;21.90;50.70;;;;;;5121706;27;20618;-73
2023/06/16 08:12:05;;;;;;;2.50;2.30;;;21.80;50.50;;;;;;5120157;27;20659;-73
2023/06/16 08:14:34;;;;;;;2.63;2.43;;;21.90;50.10;;;;;;5118316;27;20671;-73
2023/06/16 08:17:01;;;;;;;2.20;2.07;;;21.90;47.90;;;;;;5119636;27;20659;-73
2023/06/16 08:19:28;;;;;;;2.60;2.40;;;22.10;47.20;;;;;;5121277;27;21205;-74
2023/06/16 08:21:54;;;;;;;4.30;1.97;;;22.20;46.90;;;;;;5121178;27;20762;-74
2023/06/16 08:24:21;;;;;;;2.00;1.90;;;22.30;46.50;;;;;;5118788;27;21253;-73
2023/06/16 08:26:48;;;;;;;2.57;2.37;;;22.40;46.10;;;;;;5118462;27;20644;-73
2023/06/16 08:29:15;;;;;;;2.60;2.40;;;22.50;45.40;;;;;;5118272;27;20978;-73
2023/06/16 08:31:43;;;;;;;2.13;2.00;;;22.70;45.80;;;;;;5120861;27;21233;-73
2023/06/16 08:34:10;;;;;;;2.60;1.87;;;22.80;46.00;;;;;;5121970;27;20674;-74
2023/06/16 08:36:37;;;;;;;3.00;2.13;;;22.90;45.50;;;;;;5109945;27;20628;-73
2023/06/16 08:39:05;;;;;;;6.13;2.40;;;22.90;45.10;;;;;;5117986;27;20627;-73
2023/06/16 08:41:35;;;;;;;2.40;2.20;;;22.90;44.60;;;;;;5118879;27;20639;-74
2023/06/16 08:44:04;;;;;;;2.70;2.50;;;22.90;44.70;;;;;;5121916;27;20692;-73
2023/06/16 08:46:32;;;;;;;2.43;2.33;;;23.00;43.70;;;;;;5118622;27;20710;-73
2023/06/16 08:49:00;;;;;;;1.83;1.73;;;22.90;43.40;;;;;;5117488;27;21207;-73
2023/06/16 08:51:28;;;;;;;3.13;2.60;;;22.90;44.20;;;;;;5118253;27;20732;-73
2023/06/16 08:54:00;;;;;;;2.27;1.70;;;23.10;43.10;;;;;;5109892;27;21035;-73
2023/06/16 08:56:29;;;;;;;2.23;2.13;;;23.30;43.50;;;;;;5118244;27;20656;-73
2023/06/16 08:58:57;;;;;;;2.60;2.23;;;23.60;44.70;;;;;;5120338;27;22115;-73
2023/06/16 09:01:28;;;;;;;2.80;2.50;;;23.80;45.00;;;;;;5121251;27;20644;-73
2023/06/16 09:03:55;;;;;;;3.10;2.80;;;24.00;43.70;;;;;;5119186;27;20627;-73
2023/06/16 09:06:25;;;;;;;3.17;2.47;;;23.90;43.10;;;;;;5117433;27;20652;-73
2023/06/16 09:08:52;;;;;;;3.13;2.83;;;23.90;42.70;;;;;;5117611;27;20619;-73
2023/06/16 09:11:23;;;;;;;2.90;2.67;;;23.80;43.00;;;;;;5120600;27;20682;-74
2023/06/16 09:13:51;;;;;;;2.93;2.67;;;23.80;42.90;;;;;;5121108;27;20681;-73
2023/06/16 09:16:18;;;;;;;2.50;2.30;;;24.00;44.00;;;;;;5109428;27;20644;-74
2023/06/16 09:18:45;;;;;;;2.17;2.07;;;24.10;41.50;;;;;;5116907;27;20625;-73
2023/06/16 09:21:13;;;;;;;2.70;2.50;;;24.30;42.60;;;;;;5118476;27;21204;-73
2023/06/16 09:23:43;;;;;;;2.33;2.13;;;24.50;43.00;;;;;;5120849;27;20627;-73
2023/06/16 09:26:12;;;;;;;2.80;2.50;;;24.60;42.80;;;;;;5119621;27;20659;-73
2023/06/16 09:28:39;;;;;;;2.67;2.47;;;24.60;42.40;;;;;;5117710;27;20616;-73
2023/06/16 09:31:11;;;;;;;2.60;2.40;;;24.70;41.70;;;;;;5116412;27;20663;-73
2023/06/16 09:33:38;;;;;;;4.37;2.43;;;24.60;41.20;;;;;;5108338;27;20709;-74
2023/06/16 09:36:05;;;;;;;2.37;2.17;;;24.70;43.20;;;;;;5117620;27;20751;-74
2023/06/16 09:38:36;;;;;;;2.40;2.20;;;24.80;41.10;;;;;;5119801;27;20727;-74
2023/06/16 09:41:15;;;;;;;3.43;2.80;;;24.60;41.50;;;;;;5119056;27;20683;-73
2023/06/16 09:43:43;;;;;;;2.80;2.60;;;24.70;42.40;;;;;;5120694;27;20834;-73
2023/06/16 09:46:11;;;;;;;2.70;2.50;;;25.20;41.20;;;;;;5117943;27;20742;-73
2023/06/16 09:48:46;;;;;;;2.60;2.40;;;25.30;41.20;;;;;;5118268;27;20874;-73
2023/06/16 09:51:17;;;;;;;2.57;2.37;;;25.20;41.80;;;;;;5116465;27;21215;-74
2023/06/16 09:53:45;;;;;;;4.37;2.90;;;25.50;41.70;;;;;;5118961;27;20672;-73
2023/06/16 09:56:13;;;;;;;2.90;2.57;;;25.80;39.80;;;;;;5120481;27;20750;-74
2023/06/16 09:58:40;;;;;;;2.50;2.30;;;25.60;40.00;;;;;;5117763;27;21033;-73
2023/06/16 10:01:10;;;;;;;2.77;2.40;;;25.50;40.20;;;;;;5118948;27;21593;-73
2023/06/16 10:03:39;;;;;;;2.60;2.40;;;25.60;40.50;;;;;;5120069;27;20994;-74
2023/06/16 10:06:14;;;;;;;3.00;2.80;;;25.80;40.90;;;;;;5108158;27;21009;-73
2023/06/16 10:08:43;;;;;;;2.90;2.70;;;25.70;39.10;;;;;;5116452;27;21210;-72
2023/06/16 10:11:12;;;;;;;2.50;2.30;;;25.20;39.60;;;;;;5118522;27;20631;-73
2023/06/16 10:13:45;;;;;;;4.03;2.77;;;25.50;41.00;;;;;;5119697;27;20993;-73
2023/06/16 10:16:13;;;;;;;2.87;2.17;;;25.40;39.80;;;;;;5117000;27;20651;-74
2023/06/16 10:18:42;;;;;;;3.37;3.07;;;25.60;40.30;;;;;;5116895;27;20644;-74
2023/06/16 10:21:10;;;;;;;3.50;3.20;;;26.00;39.60;;;;;;5117608;27;20736;-75
2023/06/16 10:23:37;;;;;;;3.50;2.60;;;26.30;40.40;;;;;;5118066;27;20620;-74
2023/06/16 10:26:05;;;;;;;2.73;2.50;;;26.20;39.50;;;;;;5118994;27;20740;-75
2023/06/16 10:28:35;;;;;;;3.07;2.77;;;26.20;39.20;;;;;;5116744;27;20951;-74
2023/06/16 10:31:04;;;;;;;2.63;2.43;;;26.20;38.60;;;;;;5115371;27;20771;-75
2023/06/16 10:33:51;;;;;;;2.83;2.60;;;26.60;39.90;;;;;;5119137;27;20670;-74
2023/06/16 10:36:23;;;;;;;3.47;3.17;;;26.50;38.60;;;;;;5117397;27;21506;-75
2023/06/16 10:38:57;;;;;;;2.47;2.10;;;26.50;39.00;;;;;;5115919;27;20624;-73
2023/06/16 10:41:24;;;;;;;2.60;2.40;;;26.40;38.20;;;;;;5116675;27;20636;-72
2023/06/16 10:43:51;;;;;;;2.47;2.27;;;26.60;39.40;;;;;;5118933;27;20670;-72
2023/06/16 10:46:21;;;;;;;3.13;2.83;;;26.80;38.50;;;;;;5119138;27;21011;-72
2023/06/16 10:49:18;;;;;;;2.97;2.77;;;27.00;39.50;;;;;;5107020;28;21188;-72
2023/06/16 10:51:50;;;;;;;2.93;2.73;;;26.40;39.80;;;;;;5117150;28;20659;-72
2023/06/16 10:54:35;;;;;;;3.47;3.00;;;27.20;39.70;;;;;;5119189;28;20662;-72
2023/06/16 10:57:04;;;;;;;3.23;3.03;;;26.80;39.50;;;;;;5107715;28;21315;-72
2023/06/16 10:59:51;;;;;;;2.77;2.43;;;26.40;39.10;;;;;;5121864;27;20627;-72
2023/06/16 11:02:22;;;;;;;3.10;2.90;;;26.50;38.90;;;;;;5109950;28;20659;-72
2023/06/16 11:05:13;;;;;;;2.67;2.47;;;26.60;37.60;;;;;;5117541;27;21192;-72
2023/06/16 11:07:41;;;;;;;2.70;2.50;;;26.00;37.70;;;;;;5119051;27;20619;-72
2023/06/16 11:10:08;;;;;;;2.50;2.30;;;26.00;38.20;;;;;;5115091;27;20624;-73
2023/06/16 11:12:36;;;;;;;2.73;2.53;;;25.90;37.80;;;;;;5115971;28;20625;-73
2023/06/16 11:15:04;;;;;;;3.20;2.90;;;26.20;37.60;;;;;;5117539;27;20696;-73
2023/06/16 11:17:32;;;;;;;2.30;2.20;;;26.70;37.90;;;;;;5118858;27;20651;-73
2023/06/16 11:20:01;;;;;;;4.07;3.20;;;27.10;37.80;;;;;;5117304;27;21047;-73
2023/06/16 11:22:29;;;;;;;3.10;2.23;;;26.90;38.70;;;;;;5115954;27;21223;-73
2023/06/16 11:24:56;;;;;;;2.40;2.20;;;27.10;39.10;;;;;;5116137;28;20992;-73
2023/06/16 11:27:23;;;;;;;2.77;2.30;;;26.60;37.20;;;;;;5118293;28;20654;-72
2023/06/16 11:29:53;;;;;;;3.47;3.17;;;26.20;37.70;;;;;;5118526;28;20682;-73
2023/06/16 11:32:22;;;;;;;3.50;2.93;;;26.90;37.40;;;;;;5116150;28;20755;-73
2023/06/16 11:34:52;;;;;;;2.80;2.60;;;27.30;36.70;;;;;;5115808;28;20670;-73
2023/06/16 11:37:19;;;;;;;3.23;2.97;;;27.70;36.60;;;;;;5116177;28;20939;-72
2023/06/16 11:39:46;;;;;;;2.63;2.27;;;27.80;36.50;;;;;;5118496;28;20621;-72
2023/06/16 11:42:14;;;;;;;3.10;2.90;;;28.50;36.40;;;;;;5118768;28;21210;-73
2023/06/16 11:44:40;;;;;;;2.80;2.57;;;29.00;36.80;;;;;;5116383;28;20615;-73
2023/06/16 11:47:08;;;;;;;2.73;2.53;;;29.50;37.10;;;;;;5115275;28;21049;-73
2023/06/16 11:49:36;;;;;;;2.67;2.47;;;30.20;35.70;;;;;;5116362;28;20627;-72
2023/06/16 11:52:07;;;;;;;3.77;2.60;;;30.10;32.90;;;;;;5117673;28;20682;-73
2023/06/16 11:54:34;;;;;;;3.90;2.83;;;30.60;34.60;;;;;;5117998;28;20663;-73
2023/06/16 11:57:01;;;;;;;4.03;3.10;;;30.90;33.90;;;;;;5117483;27;20713;-73
2023/06/16 11:59:30;;;;;;;2.50;2.30;;;30.60;33.40;;;;;;5124072;27;21179;-73
2023/06/16 12:01:57;;;;;;;3.10;2.83;;;31.30;34.50;;;;;;5119600;27;20791;-73
2023/06/16 12:04:26;;;;;;;2.80;2.60;;;31.50;34.10;;;;;;5119105;27;20608;-74
2023/06/16 12:06:54;;;;;;;2.60;2.40;;;32.00;33.20;;;;;;5120372;27;20656;-74
2023/06/16 12:09:22;;;;;;;2.30;2.10;;;32.90;32.80;;;;;;5121318;27;20812;-74
2023/06/16 12:11:49;;;;;;;3.27;2.93;;;33.20;31.90;;;;;;5121235;27;20673;-73
2023/06/16 12:14:21;;;;;;;3.37;3.17;;;33.60;30.10;;;;;;5117559;27;20754;-74
2023/06/16 12:16:50;;;;;;;2.40;2.30;;;33.80;31.60;;;;;;5121669;27;20651;-73
2023/06/16 12:19:21;;;;;;;3.33;2.97;;;34.50;31.30;;;;;;5108184;27;21302;-71
2023/06/16 12:21:51;;;;;;;2.57;2.33;;;33.90;30.00;;;;;;5116066;27;21599;-71
2023/06/16 12:24:21;;;;;;;3.50;3.20;;;33.80;30.80;;;;;;5119647;27;20658;-73
2023/06/16 12:26:51;;;;;;;2.90;2.70;;;34.30;31.80;;;;;;5119482;27;21559;-73
2023/06/16 12:29:19;;;;;;;3.10;2.90;;;34.00;30.20;;;;;;5117880;27;20984;-75
2023/06/16 12:31:52;;;;;;;3.00;2.80;;;34.10;30.40;;;;;;5115960;27;20663;-72
2023/06/16 12:34:23;;;;;;;2.87;2.67;;;34.10;30.20;;;;;;5111238;27;21064;-72
2023/06/16 12:36:51;;;;;;;3.30;3.10;;;33.70;29.30;;;;;;5121804;27;21000;-73
2023/06/16 12:39:18;;;;;;;3.50;3.30;;;34.70;30.10;;;;;;5120331;27;20611;-74
2023/06/16 12:41:57;;;;;;;3.70;3.40;;;35.80;29.80;;;;;;5111576;27;21136;-73
2023/06/16 12:44:24;;;;;;;2.73;2.53;;;34.60;29.90;;;;;;5121246;27;20221;-73
2023/06/16 12:46:51;;;;;;;4.63;3.50;;;34.40;29.40;;;;;;5118593;27;20747;-73
2023/06/16 12:49:19;;;;;;;3.27;3.07;;;33.80;31.20;;;;;;5098344;27;21222;-73
2023/06/16 12:51:46;;;;;;;2.97;2.77;;;34.90;31.00;;;;;;5102391;27;20686;-72
2023/06/16 12:54:13;;;;;;;3.13;2.92;;;35.20;30.00;;;;;;5115420;27;20743;-73